Time,TemperatureF,DewpointF,PressureIn,WindDirection,WindDirectionDegrees,WindSpeedMPH,WindSpeedGustMPH,Humidity,HourlyPrecipIn,Conditions,Clouds,dailyrainin,SoftwareType,DateUTC
2013-04-26 00:02:00,53.1,39.5,30.22,WNW,292,6.9,6.9,60,0.00,CLR,,0.00,WeatherDisplay:10.37,2013-04-26 05:02:00,
2013-04-26 00:07:00,53.1,39.5,30.22,WNW,292,6.9,6.9,60,0.00,CLR,,0.00,WeatherDisplay:10.37,2013-04-26 05:07:00,
2013-04-26 00:12:00,53.1,39.5,30.22,WNW,292,6.9,6.9,60,0.00,CLR,,0.00,WeatherDisplay:10.37,2013-04-26 05:12:00,
2013-04-26 00:17:00,53.1,39.5,30.22,WNW,292,6.9,6.9,60,0.00,CLR,,0.00,WeatherDisplay:10.37,2013-04-26 05:17:00,
2013-04-26 00:22:00,53.1,39.5,30.22,WNW,292,6.9,6.9,60,0.00,CLR,,0.00,WeatherDisplay:10.37,2013-04-26 05:22:00,
2013-04-26 00:27:00,53.1,39.5,30.22,WNW,292,6.9,6.9,60,0.00,CLR,,0.00,WeatherDisplay:10.37,2013-04-26 05:27:00,
2013-04-26 00:32:00,53.1,39.5,30.22,WNW,292,6.9,6.9,60,0.00,CLR,,0.00,WeatherDisplay:10.37,2013-04-26 05:32:00,
2013-04-26 00:37:00,53.1,39.5,30.22,WNW,292,6.9,6.9,60,0.00,CLR,,0.00,WeatherDisplay:10.37,2013-04-26 05:37:00,
2013-04-26 00:42:00,53.1,39.5,30.22,WNW,292,6.9,6.9,60,0.00,CLR,,0.00,WeatherDisplay:10.37,2013-04-26 05:42:00,
2013-04-26 00:47:00,53.1,39.5,30.22,WNW,292,6.9,6.9,60,0.00,CLR,,0.00,WeatherDisplay:10.37,2013-04-26 05:47:00,
2013-04-26 00:52:00,53.1,39.5,30.22,WNW,292,6.9,6.9,60,0.00,CLR,,0.00,WeatherDisplay:10.37,2013-04-26 05:52:00,
2013-04-26 00:57:00,53.1,39.5,30.22,WNW,292,6.9,6.9,60,0.00,CLR,,0.00,WeatherDisplay:10.37,2013-04-26 05:57:00,
2013-04-26 01:02:00,53.1,39.5,30.22,WNW,292,6.9,6.9,60,0.00,CLR,,0.00,WeatherDisplay:10.37,2013-04-26 06:02:00,
2013-04-26 01:07:00,47.8,39.6,30.09,South,180,9.2,9.8,73,0.00,CLR,,0.00,WeatherDisplay:10.37,2013-04-26 06:07:00,
2013-04-26 01:12:00,47.8,40.0,30.09,South,180,9.2,9.8,74,0.00,CLR,,0.00,WeatherDisplay:10.37,2013-04-26 06:12:00,
2013-04-26 01:17:00,47.8,40.3,30.09,SSE,158,10.4,10.5,75,0.00,CLR,,0.00,WeatherDisplay:10.37,2013-04-26 06:17:00,
2013-04-26 01:22:00,47.8,40.3,30.09,South,180,11.5,11.9,75,0.00,CLR,,0.00,WeatherDisplay:10.37,2013-04-26 06:22:00,
2013-04-26 01:27:00,47.8,40.3,30.09,South,180,11.5,12.7,75,0.00,CLR,,0.00,WeatherDisplay:10.37,2013-04-26 06:27:00,
2013-04-26 01:32:00,47.8,40.3,30.09,South,180,11.6,12.2,75,0.00,CLR,,0.00,WeatherDisplay:10.37,2013-04-26 06:32:00,
2013-04-26 01:37:00,47.8,40.6,30.09,South,180,10.4,10.4,76,0.00,CLR,,0.00,WeatherDisplay:10.37,2013-04-26 06:37:00,
2013-04-26 01:42:00,47.8,40.6,30.09,South,180,11.5,12.2,76,0.00,CLR,,0.00,WeatherDisplay:10.37,2013-04-26 06:42:00,
2013-04-26 01:47:00,47.7,40.5,30.09,South,180,10.4,10.8,76,0.00,CLR,,0.00,WeatherDisplay:10.37,2013-04-26 06:47:00,
2013-04-26 01:52:00,47.7,40.5,30.09,South,180,10.4,10.4,76,0.00,CLR,,0.00,WeatherDisplay:10.37,2013-04-26 06:52:00,
2013-04-26 01:57:00,47.5,40.3,30.09,South,180,10.4,10.7,76,0.00,CLR,,0.00,WeatherDisplay:10.37,2013-04-26 06:57:00,
2013-04-26 02:02:00,47.3,40.5,30.09,South,180,9.2,10.4,77,0.00,CLR,,0.00,WeatherDisplay:10.37,2013-04-26 07:02:00,
2013-04-26 02:07:00,47.3,40.5,30.09,South,180,9.2,10.4,77,0.00,CLR,,0.00,WeatherDisplay:10.37,2013-04-26 07:07:00,
2013-04-26 02:12:00,47.1,40.6,30.09,South,180,10.4,11.0,78,0.00,CLR,,0.00,WeatherDisplay:10.37,2013-04-26 07:12:00,
2013-04-26 02:17:00,46.9,40.8,30.08,South,180,11.5,11.8,79,0.00,CLR,,0.00,WeatherDisplay:10.37,2013-04-26 07:17:00,
2013-04-26 02:22:00,47.1,40.9,30.08,South,180,10.4,11.0,79,0.00,CLR,,0.00,WeatherDisplay:10.37,2013-04-26 07:22:00,
2013-04-26 02:27:00,47.1,41.3,30.08,South,180,11.9,11.9,80,0.00,CLR,,0.00,WeatherDisplay:10.37,2013-04-26 07:27:00,
2013-04-26 02:32:00,47.3,41.1,30.08,SSW,202,10.4,10.4,79,0.00,CLR,,0.00,WeatherDisplay:10.37,2013-04-26 07:32:00,
2013-04-26 02:37:00,47.5,41.3,30.08,South,180,11.5,12.2,79,0.00,CLR,,0.00,WeatherDisplay:10.37,2013-04-26 07:37:00,
2013-04-26 02:42:00,47.5,41.3,30.08,South,180,11.9,12.0,79,0.00,CLR,,0.00,WeatherDisplay:10.37,2013-04-26 07:42:00,
2013-04-26 02:47:00,47.3,41.1,30.08,South,180,10.4,10.7,79,0.00,CLR,,0.00,WeatherDisplay:10.37,2013-04-26 07:47:00,
2013-04-26 02:52:00,47.3,41.4,30.07,SSW,202,10.4,11.6,80,0.00,CLR,,0.00,WeatherDisplay:10.37,2013-04-26 07:52:00,
2013-04-26 02:57:00,47.1,41.6,30.07,South,180,9.2,10.4,81,0.00,CLR,,0.00,WeatherDisplay:10.37,2013-04-26 07:57:00,
2013-04-26 03:02:00,46.8,41.2,30.07,South,180,10.4,10.8,81,0.00,CLR,,0.00,WeatherDisplay:10.37,2013-04-26 08:02:00,
2013-04-26 03:07:00,46.8,41.2,30.07,South,180,11.5,11.5,81,0.00,CLR,,0.00,WeatherDisplay:10.37,2013-04-26 08:07:00,
2013-04-26 03:12:00,46.6,41.1,30.07,South,180,11.5,11.7,81,0.00,CLR,,0.00,WeatherDisplay:10.37,2013-04-26 08:12:00,
2013-04-26 03:17:00,46.2,40.7,30.07,South,180,10.4,10.6,81,0.00,CLR,,0.00,WeatherDisplay:10.37,2013-04-26 08:17:00,
2013-04-26 03:22:00,46.0,40.5,30.06,South,180,10.4,11.6,81,0.00,CLR,,0.00,WeatherDisplay:10.37,2013-04-26 08:22:00,
2013-04-26 03:27:00,45.7,40.5,30.06,South,180,10.4,10.4,82,0.00,CLR,,0.00,WeatherDisplay:10.37,2013-04-26 08:27:00,
2013-04-26 03:32:00,45.5,40.3,30.06,South,180,10.4,10.7,82,0.00,CLR,,0.00,WeatherDisplay:10.37,2013-04-26 08:32:00,
2013-04-26 03:37:00,45.3,40.5,30.07,South,180,10.4,11.0,83,0.00,CLR,,0.00,WeatherDisplay:10.37,2013-04-26 08:37:00,
2013-04-26 03:42:00,45.3,40.5,30.07,South,180,10.3,10.3,83,0.00,CLR,,0.00,WeatherDisplay:10.37,2013-04-26 08:42:00,
2013-04-26 03:47:00,45.3,40.8,30.06,South,180,9.7,10.4,84,0.00,CLR,,0.00,WeatherDisplay:10.37,2013-04-26 08:47:00,
2013-04-26 03:52:00,45.3,40.8,30.06,South,180,11.5,12.2,84,0.00,CLR,,0.00,WeatherDisplay:10.37,2013-04-26 08:52:00,
2013-04-26 03:57:00,45.3,40.8,30.06,South,180,9.2,9.8,84,0.00,CLR,,0.00,WeatherDisplay:10.37,2013-04-26 08:57:00,
2013-04-26 04:02:00,45.3,40.8,30.06,South,180,9.2,9.2,84,0.00,CLR,,0.00,WeatherDisplay:10.37,2013-04-26 09:02:00,
2013-04-26 04:07:00,45.3,41.1,30.06,South,180,10.4,10.7,85,0.00,CLR,,0.00,WeatherDisplay:10.37,2013-04-26 09:07:00,
2013-04-26 04:12:00,45.3,41.1,30.06,South,180,9.2,10.4,85,0.00,CLR,,0.00,WeatherDisplay:10.37,2013-04-26 09:12:00,
2013-04-26 04:17:00,45.3,41.1,30.05,South,180,9.2,9.8,85,0.00,CLR,,0.00,WeatherDisplay:10.37,2013-04-26 09:17:00,
2013-04-26 04:22:00,45.0,40.7,30.05,South,180,8.1,8.7,85,0.00,CLR,,0.00,WeatherDisplay:10.37,2013-04-26 09:22:00,
2013-04-26 04:27:00,45.0,40.7,30.05,South,180,9.2,9.2,85,0.00,CLR,,0.00,WeatherDisplay:10.37,2013-04-26 09:27:00,
2013-04-26 04:32:00,45.0,40.7,30.05,South,180,9.2,9.5,85,0.00,CLR,,0.00,WeatherDisplay:10.37,2013-04-26 09:32:00,
2013-04-26 04:37:00,45.0,40.7,30.05,South,180,9.2,10.1,85,0.00,CLR,,0.00,WeatherDisplay:10.37,2013-04-26 09:37:00,
2013-04-26 04:42:00,45.1,40.9,30.05,SSW,202,8.1,9.3,85,0.00,CLR,,0.00,WeatherDisplay:10.37,2013-04-26 09:42:00,
2013-04-26 04:47:00,45.3,41.1,30.05,SSW,202,11.5,12.2,85,0.00,CLR,,0.00,WeatherDisplay:10.37,2013-04-26 09:47:00,
2013-04-26 04:52:00,45.9,41.3,30.05,South,180,10.4,11.0,84,0.00,CLR,,0.00,WeatherDisplay:10.37,2013-04-26 09:52:00,
2013-04-26 04:57:00,46.8,42.2,30.04,SSW,202,11.5,12.2,84,0.00,CLR,,0.00,WeatherDisplay:10.37,2013-04-26 09:57:00,
2013-04-26 05:02:00,47.1,42.5,30.05,SSW,202,11.5,11.5,84,0.00,CLR,,0.00,WeatherDisplay:10.37,2013-04-26 10:02:00,
2013-04-26 05:07:00,47.8,42.6,30.04,SSW,202,10.8,11.6,82,0.00,CLR,,0.00,WeatherDisplay:10.37,2013-04-26 10:07:00,
2013-04-26 05:12:00,48.4,42.8,30.05,SSW,202,9.5,10.2,81,0.00,CLR,,0.00,WeatherDisplay:10.37,2013-04-26 10:12:00,
2013-04-26 05:17:00,48.6,43.0,30.05,SSW,202,9.2,9.2,81,0.00,CLR,,0.00,WeatherDisplay:10.37,2013-04-26 10:17:00,
2013-04-26 05:22:00,48.4,42.5,30.04,South,180,8.1,8.1,80,0.00,CLR,,0.00,WeatherDisplay:10.37,2013-04-26 10:22:00,
2013-04-26 05:27:00,48.2,42.3,30.04,South,180,7.3,7.8,80,0.00,CLR,,0.00,WeatherDisplay:10.37,2013-04-26 10:27:00,
2013-04-26 05:32:00,47.8,42.0,30.04,South,180,7.0,7.5,80,0.00,CLR,,0.00,WeatherDisplay:10.37,2013-04-26 10:32:00,
2013-04-26 05:37:00,47.7,41.8,30.05,South,180,8.1,8.1,80,0.00,CLR,,0.00,WeatherDisplay:10.37,2013-04-26 10:37:00,
2013-04-26 05:42:00,47.5,41.6,30.05,South,180,9.2,9.2,80,0.00,CLR,,0.00,WeatherDisplay:10.37,2013-04-26 10:42:00,
2013-04-26 05:47:00,47.5,41.6,30.04,South,180,9.2,9.5,80,0.00,CLR,,0.00,WeatherDisplay:10.37,2013-04-26 10:47:00,
2013-04-26 05:52:00,47.3,41.8,30.04,South,180,9.2,9.7,81,0.00,CLR,,0.00,WeatherDisplay:10.37,2013-04-26 10:52:00,
2013-04-26 05:57:00,47.3,41.8,30.05,South,180,9.2,9.2,81,0.00,CLR,,0.00,WeatherDisplay:10.37,2013-04-26 10:57:00,
2013-04-26 06:02:00,47.3,41.8,30.05,South,180,8.1,8.4,81,0.00,CLR,,0.00,WeatherDisplay:10.37,2013-04-26 11:02:00,
2013-04-26 06:07:00,47.3,41.8,30.05,South,180,8.1,8.2,81,0.00,CLR,,0.00,WeatherDisplay:10.37,2013-04-26 11:07:00,
2013-04-26 06:12:00,47.3,41.8,30.04,South,180,9.2,9.4,81,0.00,CLR,,0.00,WeatherDisplay:10.37,2013-04-26 11:12:00,
2013-04-26 06:17:00,47.5,42.3,30.05,South,180,8.1,8.4,82,0.00,CLR,,0.00,WeatherDisplay:10.37,2013-04-26 11:17:00,
2013-04-26 06:22:00,47.7,42.4,30.05,SSW,202,8.1,8.2,82,0.00,CLR,,0.00,WeatherDisplay:10.37,2013-04-26 11:22:00,
2013-04-26 06:27:00,47.8,42.6,30.05,South,180,10.4,10.4,82,0.00,CLR,,0.00,WeatherDisplay:10.37,2013-04-26 11:27:00,
2013-04-26 06:32:00,47.8,42.6,30.05,South,180,9.2,9.5,82,0.00,CLR,,0.00,WeatherDisplay:10.37,2013-04-26 11:32:00,
2013-04-26 06:37:00,48.2,43.0,30.05,South,180,9.7,10.4,82,0.00,CLR,,0.00,WeatherDisplay:10.37,2013-04-26 11:37:00,
2013-04-26 06:42:00,48.6,43.3,30.05,South,180,9.2,9.2,82,0.00,CLR,,0.00,WeatherDisplay:10.37,2013-04-26 11:42:00,
2013-04-26 06:47:00,48.7,43.5,30.05,SSW,202,10.4,10.7,82,0.00,CLR,,0.00,WeatherDisplay:10.37,2013-04-26 11:47:00,
2013-04-26 06:52:00,48.9,43.3,30.05,SSW,202,9.2,9.7,81,0.00,CLR,,0.00,WeatherDisplay:10.37,2013-04-26 11:52:00,
2013-04-26 06:57:00,49.1,43.2,30.05,SSW,202,10.4,11.0,80,0.00,CLR,,0.00,WeatherDisplay:10.37,2013-04-26 11:57:00,
2013-04-26 07:02:00,49.3,43.4,30.05,SSW,202,9.2,10.4,80,0.00,CLR,,0.00,WeatherDisplay:10.37,2013-04-26 12:02:00,
2013-04-26 07:07:00,49.5,43.2,30.06,SSW,202,9.2,11.4,79,0.00,CLR,,0.00,WeatherDisplay:10.37,2013-04-26 12:07:00,
2013-04-26 07:12:00,50.2,43.9,30.06,South,180,12.7,12.7,79,0.00,CLR,,0.00,WeatherDisplay:10.37,2013-04-26 12:12:00,
2013-04-26 07:17:00,50.7,44.4,30.06,SSW,202,11.6,12.4,79,0.00,CLR,,0.00,WeatherDisplay:10.37,2013-04-26 12:17:00,
2013-04-26 07:22:00,50.9,43.6,30.06,SSW,202,12.7,12.7,76,0.00,CLR,,0.00,WeatherDisplay:10.37,2013-04-26 12:22:00,
2013-04-26 07:27:00,51.4,44.1,30.06,SW,225,11.9,11.9,76,0.00,CLR,,0.00,WeatherDisplay:10.37,2013-04-26 12:27:00,
2013-04-26 07:32:00,52.0,44.3,30.07,SW,225,11.9,12.7,75,0.00,CLR,,0.00,WeatherDisplay:10.37,2013-04-26 12:32:00,
2013-04-26 07:37:00,52.3,44.6,30.07,SW,225,12.4,13.0,75,0.00,CLR,,0.00,WeatherDisplay:10.37,2013-04-26 12:37:00,
2013-04-26 07:42:00,52.7,44.6,30.06,South,180,12.7,13.0,74,0.00,CLR,,0.00,WeatherDisplay:10.37,2013-04-26 12:42:00,
2013-04-26 07:47:00,53.6,44.8,30.07,SSW,202,16.2,16.2,72,0.00,CLR,,0.00,WeatherDisplay:10.37,2013-04-26 12:47:00,
2013-04-26 07:52:00,53.8,45.0,30.06,SSW,202,15.0,16.4,72,0.00,CLR,,0.00,WeatherDisplay:10.37,2013-04-26 12:52:00,
2013-04-26 07:57:00,54.7,45.5,30.07,SSW,202,17.3,17.4,71,0.00,CLR,,0.00,WeatherDisplay:10.37,2013-04-26 12:57:00,
2013-04-26 08:02:00,55.0,45.4,30.07,SSW,202,15.7,16.4,70,0.00,CLR,,0.00,WeatherDisplay:10.37,2013-04-26 13:02:00,
2013-04-26 08:07:00,55.8,45.7,30.07,SSW,202,16.2,16.2,69,0.00,CLR,,0.00,WeatherDisplay:10.37,2013-04-26 13:07:00,
2013-04-26 08:12:00,56.1,45.7,30.07,SSW,202,16.1,17.1,68,0.00,CLR,,0.00,WeatherDisplay:10.37,2013-04-26 13:12:00,
2013-04-26 08:17:00,56.7,45.4,30.06,SW,225,15.7,15.7,66,0.00,CLR,,0.00,WeatherDisplay:10.37,2013-04-26 13:17:00,
2013-04-26 08:22:00,57.0,45.4,30.06,SSW,202,16.1,17.3,65,0.00,CLR,,0.00,WeatherDisplay:10.37,2013-04-26 13:22:00,
2013-04-26 08:27:00,57.0,45.4,30.06,SSW,202,16.2,17.4,65,0.00,CLR,,0.00,WeatherDisplay:10.37,2013-04-26 13:27:00,
2013-04-26 08:32:00,57.6,45.5,30.06,SW,225,20.8,20.8,64,0.00,CLR,,0.00,WeatherDisplay:10.37,2013-04-26 13:32:00,
2013-04-26 08:37:00,57.6,45.5,30.07,SSW,202,19.5,19.6,64,0.00,CLR,,0.00,WeatherDisplay:10.37,2013-04-26 13:37:00,
2013-04-26 08:42:00,57.9,45.8,30.07,SSW,202,17.3,18.6,64,0.00,CLR,,0.00,WeatherDisplay:10.37,2013-04-26 13:42:00,
2013-04-26 08:47:00,58.5,45.5,30.07,SW,225,15.0,16.5,62,0.00,CLR,,0.00,WeatherDisplay:10.37,2013-04-26 13:47:00,
2013-04-26 08:52:00,58.5,45.5,30.07,SSW,202,23.0,23.0,62,0.00,CLR,,0.00,WeatherDisplay:10.37,2013-04-26 13:52:00,
2013-04-26 08:57:00,58.8,45.8,30.07,SSW,202,18.4,19.7,62,0.00,CLR,,0.00,WeatherDisplay:10.37,2013-04-26 13:57:00,
2013-04-26 09:02:00,59.4,46.3,30.07,SW,225,24.3,24.3,62,0.00,CLR,,0.00,WeatherDisplay:10.37,2013-04-26 14:02:00,
2013-04-26 09:07:00,59.9,46.8,30.07,SW,225,18.9,20.3,62,0.00,CLR,,0.00,WeatherDisplay:10.37,2013-04-26 14:07:00,
2013-04-26 09:12:00,60.4,46.9,30.08,SSW,202,15.4,16.5,61,0.00,CLR,,0.00,WeatherDisplay:10.37,2013-04-26 14:12:00,
2013-04-26 09:17:00,61.3,46.9,30.08,SSW,202,20.8,20.8,59,0.00,CLR,,0.00,WeatherDisplay:10.37,2013-04-26 14:17:00,
2013-04-26 09:22:00,61.7,47.2,30.08,SW,225,15.0,16.2,59,0.00,CLR,,0.00,WeatherDisplay:10.37,2013-04-26 14:22:00,
2013-04-26 09:27:00,62.2,47.7,30.07,SW,225,23.0,24.9,59,0.00,CLR,,0.00,WeatherDisplay:10.37,2013-04-26 14:27:00,
2013-04-26 09:32:00,62.8,47.8,30.08,SSW,202,19.6,21.9,58,0.00,CLR,,0.00,WeatherDisplay:10.37,2013-04-26 14:32:00,
2013-04-26 09:37:00,63.0,47.9,30.08,SW,225,20.7,20.7,58,0.00,CLR,,0.00,WeatherDisplay:10.37,2013-04-26 14:37:00,
2013-04-26 09:42:00,63.1,48.1,30.08,SW,225,22.2,22.2,58,0.00,CLR,,0.00,WeatherDisplay:10.37,2013-04-26 14:42:00,
2013-04-26 09:47:00,63.3,48.3,30.08,SSW,202,25.1,25.1,58,0.00,CLR,,0.00,WeatherDisplay:10.37,2013-04-26 14:47:00,
2013-04-26 09:52:00,63.5,48.5,30.08,SW,225,19.6,21.4,58,0.00,CLR,,0.00,WeatherDisplay:10.37,2013-04-26 14:52:00,
2013-04-26 09:57:00,63.9,48.3,30.08,SSW,202,23.0,24.9,57,0.00,CLR,,0.00,WeatherDisplay:10.37,2013-04-26 14:57:00,
2013-04-26 10:02:00,63.9,48.3,30.08,SW,225,24.2,24.2,57,0.00,CLR,,0.00,WeatherDisplay:10.37,2013-04-26 15:02:00,
2013-04-26 10:07:00,63.7,48.2,30.08,SSW,202,25.3,25.3,57,0.02,RA,,0.02,WeatherDisplay:10.37,2013-04-26 15:07:00,
2013-04-26 10:12:00,63.9,48.3,30.08,SW,225,23.0,24.9,57,0.02,RA,,0.02,WeatherDisplay:10.37,2013-04-26 15:12:00,
2013-04-26 10:17:00,64.0,48.5,30.08,SW,225,23.3,24.7,57,0.02,CLR,,0.02,WeatherDisplay:10.37,2013-04-26 15:17:00,
2013-04-26 10:22:00,64.2,49.1,30.08,SW,225,19.6,19.6,58,0.02,CLR,,0.02,WeatherDisplay:10.37,2013-04-26 15:22:00,
2013-04-26 10:27:00,64.8,49.2,30.08,SSW,202,26.5,27.8,57,0.02,CLR,,0.02,WeatherDisplay:10.37,2013-04-26 15:27:00,
2013-04-26 10:32:00,65.1,49.5,30.08,SW,225,24.2,24.2,57,0.02,CLR,,0.02,WeatherDisplay:10.37,2013-04-26 15:32:00,
2013-04-26 10:37:00,65.1,49.5,30.08,SW,225,23.0,23.0,57,0.02,CLR,,0.02,WeatherDisplay:10.37,2013-04-26 15:37:00,
2013-04-26 10:42:00,65.5,49.8,30.08,SW,225,21.9,23.4,57,0.02,CLR,,0.02,WeatherDisplay:10.37,2013-04-26 15:42:00,
2013-04-26 10:47:00,65.8,50.2,30.08,South,180,19.6,19.6,57,0.02,CLR,,0.02,WeatherDisplay:10.37,2013-04-26 15:47:00,
2013-04-26 10:52:00,66.2,50.5,30.09,WSW,248,17.3,18.5,57,0.02,CLR,,0.02,WeatherDisplay:10.37,2013-04-26 15:52:00,
2013-04-26 10:57:00,66.6,50.4,30.09,SSW,202,23.0,24.6,56,0.04,RA,,0.04,WeatherDisplay:10.37,2013-04-26 15:57:00,
2013-04-26 11:02:00,66.9,50.7,30.09,SW,225,23.0,23.7,56,0.04,RA,,0.04,WeatherDisplay:10.37,2013-04-26 16:02:00,
2013-04-26 11:07:00,67.1,50.9,30.09,SW,225,31.1,31.1,56,0.02,CLR,,0.04,WeatherDisplay:10.37,2013-04-26 16:07:00,
2013-04-26 11:12:00,67.1,50.9,30.09,SSW,202,19.6,20.5,56,0.02,CLR,,0.04,WeatherDisplay:10.37,2013-04-26 16:12:00,
2013-04-26 11:17:00,67.1,50.4,30.09,SW,225,23.5,23.5,55,0.02,CLR,,0.04,WeatherDisplay:10.37,2013-04-26 16:17:00,
2013-04-26 11:22:00,66.9,50.7,30.09,SW,225,17.3,17.3,56,0.02,CLR,,0.04,WeatherDisplay:10.37,2013-04-26 16:22:00,
2013-04-26 11:27:00,67.3,51.5,30.10,SSW,202,18.9,20.3,57,0.02,CLR,,0.04,WeatherDisplay:10.37,2013-04-26 16:27:00,
2013-04-26 11:32:00,68.2,51.4,30.09,SW,225,29.5,29.5,55,0.02,CLR,,0.04,WeatherDisplay:10.37,2013-04-26 16:32:00,
2013-04-26 11:37:00,68.4,51.6,30.10,SW,225,30.8,30.8,55,0.02,CLR,,0.04,WeatherDisplay:10.37,2013-04-26 16:37:00,
2013-04-26 11:42:00,68.2,51.4,30.10,SW,225,18.4,21.5,55,0.02,CLR,,0.04,WeatherDisplay:10.37,2013-04-26 16:42:00,
2013-04-26 11:47:00,68.4,51.1,30.10,SW,225,24.2,24.2,54,0.02,CLR,,0.04,WeatherDisplay:10.37,2013-04-26 16:47:00,
2013-04-26 11:52:00,68.2,50.9,30.10,WSW,248,26.5,28.6,54,0.02,CLR,,0.04,WeatherDisplay:10.37,2013-04-26 16:52:00,
2013-04-26 11:57:00,68.4,51.6,30.10,SSW,202,21.1,21.8,55,0.00,CLR,,0.04,WeatherDisplay:10.37,2013-04-26 16:57:00,
2013-04-26 12:02:00,68.9,52.1,30.11,SSW,202,28.8,28.8,55,0.00,CLR,,0.04,WeatherDisplay:10.37,2013-04-26 17:02:00,
2013-04-26 12:07:00,68.7,51.9,30.11,SSW,202,20.7,22.0,55,0.00,CLR,,0.04,WeatherDisplay:10.37,2013-04-26 17:07:00,
2013-04-26 12:12:00,68.7,51.4,30.11,SSW,202,20.7,21.4,54,0.00,CLR,,0.04,WeatherDisplay:10.37,2013-04-26 17:12:00,
2013-04-26 12:17:00,69.3,52.4,30.10,SW,225,24.3,24.3,55,0.00,CLR,,0.04,WeatherDisplay:10.37,2013-04-26 17:17:00,
2013-04-26 12:22:00,69.3,51.9,30.11,SSW,202,28.8,31.1,54,0.00,CLR,,0.04,WeatherDisplay:10.37,2013-04-26 17:22:00,
2013-04-26 12:27:00,68.7,50.9,30.10,SW,225,26.5,26.5,53,0.00,CLR,,0.04,WeatherDisplay:10.37,2013-04-26 17:27:00,
2013-04-26 12:32:00,68.4,51.6,30.10,SW,225,23.0,23.0,55,0.00,CLR,,0.04,WeatherDisplay:10.37,2013-04-26 17:32:00,
2013-04-26 12:37:00,68.9,52.6,30.11,SSW,202,22.2,22.2,56,0.00,CLR,,0.04,WeatherDisplay:10.37,2013-04-26 17:37:00,
2013-04-26 12:42:00,69.4,52.6,30.10,WSW,248,14.3,15.3,55,0.00,CLR,,0.04,WeatherDisplay:10.37,2013-04-26 17:42:00,
2013-04-26 12:47:00,70.0,53.1,30.10,SW,225,23.0,23.0,55,0.00,CLR,,0.04,WeatherDisplay:10.37,2013-04-26 17:47:00,
2013-04-26 12:52:00,69.6,52.2,30.10,SSW,202,22.2,22.2,54,0.00,CLR,,0.04,WeatherDisplay:10.37,2013-04-26 17:52:00,
2013-04-26 12:57:00,69.1,51.7,30.10,SW,225,18.4,18.7,54,0.00,CLR,,0.04,WeatherDisplay:10.37,2013-04-26 17:57:00,
2013-04-26 13:02:00,68.9,51.6,30.10,SW,225,24.2,24.2,54,0.00,CLR,,0.04,WeatherDisplay:10.37,2013-04-26 18:02:00,
2013-04-26 13:07:00,68.7,51.9,30.10,SW,225,17.3,18.0,55,0.00,CLR,,0.04,WeatherDisplay:10.37,2013-04-26 18:07:00,
2013-04-26 13:12:00,68.7,52.4,30.10,SW,225,15.1,16.2,56,0.00,CLR,,0.04,WeatherDisplay:10.37,2013-04-26 18:12:00,
2013-04-26 13:17:00,69.1,52.2,30.10,SSW,202,10.8,11.6,55,0.00,CLR,,0.04,WeatherDisplay:10.37,2013-04-26 18:17:00,
2013-04-26 13:22:00,69.1,52.2,30.10,SSW,202,13.2,13.2,55,0.00,CLR,,0.04,WeatherDisplay:10.37,2013-04-26 18:22:00,
2013-04-26 13:27:00,69.4,52.6,30.10,SW,225,18.4,19.4,55,0.00,CLR,,0.04,WeatherDisplay:10.37,2013-04-26 18:27:00,
2013-04-26 13:32:00,69.4,52.1,30.09,WSW,248,18.4,18.4,54,0.00,CLR,,0.04,WeatherDisplay:10.37,2013-04-26 18:32:00,
2013-04-26 13:37:00,69.3,51.9,30.09,SSW,202,21.9,21.9,54,0.00,CLR,,0.04,WeatherDisplay:10.37,2013-04-26 18:37:00,
2013-04-26 13:42:00,69.4,52.6,30.09,SW,225,12.7,13.9,55,0.00,CLR,,0.04,WeatherDisplay:10.37,2013-04-26 18:42:00,
2013-04-26 13:47:00,69.4,52.6,30.09,SSE,158,15.0,15.6,55,0.00,CLR,,0.04,WeatherDisplay:10.37,2013-04-26 18:47:00,
2013-04-26 13:52:00,69.3,51.9,30.09,SSW,202,19.6,19.6,54,0.00,CLR,,0.04,WeatherDisplay:10.37,2013-04-26 18:52:00,
2013-04-26 13:57:00,69.4,52.6,30.09,SW,225,17.3,17.9,55,0.00,CLR,,0.04,WeatherDisplay:10.37,2013-04-26 18:57:00,
2013-04-26 14:02:00,69.4,52.1,30.09,SW,225,20.7,21.7,54,0.00,CLR,,0.04,WeatherDisplay:10.37,2013-04-26 19:02:00,
2013-04-26 14:07:00,69.4,52.6,30.09,SSW,202,16.0,16.6,55,0.00,CLR,,0.04,WeatherDisplay:10.37,2013-04-26 19:07:00,
2013-04-26 14:12:00,70.0,53.1,30.10,SW,225,20.7,20.7,55,0.00,CLR,,0.04,WeatherDisplay:10.37,2013-04-26 19:12:00,
2013-04-26 14:17:00,70.3,52.9,30.09,SW,225,14.3,15.3,54,0.00,CLR,,0.04,WeatherDisplay:10.37,2013-04-26 19:17:00,
2013-04-26 14:22:00,71.1,53.1,30.09,SW,225,16.5,17.4,53,0.00,CLR,,0.04,WeatherDisplay:10.37,2013-04-26 19:22:00,
2013-04-26 14:27:00,71.1,53.1,30.10,WSW,248,18.7,20.0,53,0.00,CLR,,0.04,WeatherDisplay:10.37,2013-04-26 19:27:00,
2013-04-26 14:32:00,71.2,53.2,30.10,WSW,248,16.1,16.6,53,0.00,CLR,,0.04,WeatherDisplay:10.37,2013-04-26 19:32:00,
2013-04-26 14:37:00,71.2,53.2,30.10,WSW,248,19.7,19.7,53,0.00,CLR,,0.04,WeatherDisplay:10.37,2013-04-26 19:37:00,
2013-04-26 14:42:00,71.4,52.9,30.10,South,180,17.3,17.3,52,0.00,CLR,,0.04,WeatherDisplay:10.37,2013-04-26 19:42:00,
2013-04-26 14:47:00,71.8,53.2,30.10,SSW,202,15.1,15.1,52,0.00,CLR,,0.04,WeatherDisplay:10.37,2013-04-26 19:47:00,
2013-04-26 14:52:00,71.4,52.9,30.10,SW,225,14.9,15.2,52,0.00,CLR,,0.04,WeatherDisplay:10.37,2013-04-26 19:52:00,
2013-04-26 14:57:00,71.8,53.7,30.10,SW,225,16.1,16.1,53,0.00,CLR,,0.04,WeatherDisplay:10.37,2013-04-26 19:57:00,
2013-04-26 15:02:00,72.3,54.2,30.09,SW,225,11.4,11.4,53,0.00,CLR,,0.04,WeatherDisplay:10.37,2013-04-26 20:02:00,
2013-04-26 15:07:00,72.1,53.5,30.10,West,270,13.8,13.8,52,0.00,CLR,,0.04,WeatherDisplay:10.37,2013-04-26 20:07:00,
2013-04-26 15:12:00,72.3,53.7,30.09,SW,225,11.5,11.5,52,0.00,CLR,,0.04,WeatherDisplay:10.37,2013-04-26 20:12:00,
2013-04-26 15:17:00,72.7,54.0,30.10,South,180,15.1,15.1,52,0.00,CLR,,0.04,WeatherDisplay:10.37,2013-04-26 20:17:00,
2013-04-26 15:22:00,72.3,53.2,30.10,SW,225,12.7,12.7,51,0.00,CLR,,0.04,WeatherDisplay:10.37,2013-04-26 20:22:00,
2013-04-26 15:27:00,72.0,53.4,30.10,South,180,11.6,12.4,52,0.00,CLR,,0.04,WeatherDisplay:10.37,2013-04-26 20:27:00,
2013-04-26 15:32:00,71.4,53.4,30.10,SSW,202,17.3,17.3,53,0.00,CLR,,0.04,WeatherDisplay:10.37,2013-04-26 20:32:00,
2013-04-26 15:37:00,71.6,53.0,30.10,WSW,248,15.4,16.2,52,0.00,CLR,,0.04,WeatherDisplay:10.37,2013-04-26 20:37:00,
2013-04-26 15:42:00,71.6,53.6,30.09,SW,225,15.0,15.0,53,0.00,CLR,,0.04,WeatherDisplay:10.37,2013-04-26 20:42:00,
2013-04-26 15:47:00,71.4,53.4,30.09,WSW,248,12.7,14.5,53,0.00,CLR,,0.04,WeatherDisplay:10.37,2013-04-26 20:47:00,
2013-04-26 15:52:00,72.0,53.9,30.10,SW,225,11.5,11.5,53,0.00,CLR,,0.04,WeatherDisplay:10.37,2013-04-26 20:52:00,
2013-04-26 15:57:00,72.0,53.4,30.09,WSW,248,12.7,12.7,52,0.00,CLR,,0.04,WeatherDisplay:10.37,2013-04-26 20:57:00,
2013-04-26 16:02:00,71.8,53.2,30.09,SSW,202,5.8,6.6,52,0.00,CLR,,0.04,WeatherDisplay:10.37,2013-04-26 21:02:00,
2013-04-26 16:07:00,71.2,52.7,30.10,SW,225,11.5,11.5,52,0.00,CLR,,0.04,WeatherDisplay:10.37,2013-04-26 21:07:00,
2013-04-26 16:12:00,71.2,52.7,30.09,SW,225,12.7,12.7,52,0.00,CLR,,0.04,WeatherDisplay:10.37,2013-04-26 21:12:00,
2013-04-26 16:17:00,71.2,52.7,30.10,SSW,202,8.1,8.5,52,0.00,CLR,,0.04,WeatherDisplay:10.37,2013-04-26 21:17:00,
2013-04-26 16:22:00,71.1,52.5,30.09,SW,225,12.7,13.0,52,0.00,CLR,,0.04,WeatherDisplay:10.37,2013-04-26 21:22:00,
2013-04-26 16:27:00,70.9,52.4,30.09,SW,225,12.7,13.0,52,0.00,CLR,,0.04,WeatherDisplay:10.37,2013-04-26 21:27:00,
2013-04-26 16:32:00,71.1,53.1,30.10,SSW,202,12.7,12.7,53,0.00,CLR,,0.04,WeatherDisplay:10.37,2013-04-26 21:32:00,
2013-04-26 16:37:00,71.1,52.5,30.09,WSW,248,11.5,12.7,52,0.00,CLR,,0.04,WeatherDisplay:10.37,2013-04-26 21:37:00,
2013-04-26 16:42:00,70.9,52.4,30.09,SSW,202,12.7,13.0,52,0.00,CLR,,0.04,WeatherDisplay:10.37,2013-04-26 21:42:00,
2013-04-26 16:47:00,70.3,52.4,30.09,SSW,202,11.5,12.0,53,0.00,CLR,,0.04,WeatherDisplay:10.37,2013-04-26 21:47:00,
2013-04-26 16:52:00,70.5,53.1,30.09,WSW,248,10.4,10.4,54,0.00,CLR,,0.04,WeatherDisplay:10.37,2013-04-26 21:52:00,
2013-04-26 16:57:00,70.7,52.7,30.09,SW,225,14.1,14.1,53,0.00,CLR,,0.04,WeatherDisplay:10.37,2013-04-26 21:57:00,
2013-04-26 17:02:00,71.1,53.1,30.09,WSW,248,15.0,15.2,53,0.00,CLR,,0.04,WeatherDisplay:10.37,2013-04-26 22:02:00,
2013-04-26 17:07:00,71.1,53.1,30.10,WSW,248,15.0,15.0,53,0.00,CLR,,0.04,WeatherDisplay:10.37,2013-04-26 22:07:00,
2013-04-26 17:12:00,71.1,52.5,30.10,SSW,202,9.5,10.1,52,0.00,CLR,,0.04,WeatherDisplay:10.37,2013-04-26 22:12:00,
2013-04-26 17:17:00,70.3,51.3,30.10,SW,225,13.8,13.8,51,0.00,CLR,,0.04,WeatherDisplay:10.37,2013-04-26 22:17:00,
2013-04-26 17:22:00,70.2,52.2,30.10,SW,225,17.3,17.3,53,0.00,CLR,,0.04,WeatherDisplay:10.37,2013-04-26 22:22:00,
2013-04-26 17:27:00,70.0,53.1,30.10,SW,225,12.7,13.1,55,0.00,CLR,,0.04,WeatherDisplay:10.37,2013-04-26 22:27:00,
2013-04-26 17:32:00,69.3,52.4,30.10,SSW,202,14.3,15.0,55,0.00,CLR,,0.04,WeatherDisplay:10.37,2013-04-26 22:32:00,
2013-04-26 17:37:00,69.4,53.1,30.10,SW,225,16.1,16.8,56,0.00,CLR,,0.04,WeatherDisplay:10.37,2013-04-26 22:37:00,
2013-04-26 17:42:00,69.3,53.4,30.10,SW,225,13.8,14.2,57,0.00,CLR,,0.04,WeatherDisplay:10.37,2013-04-26 22:42:00,
2013-04-26 17:47:00,68.9,52.6,30.10,SW,225,17.3,17.3,56,0.00,CLR,,0.04,WeatherDisplay:10.37,2013-04-26 22:47:00,
2013-04-26 17:52:00,68.4,53.0,30.10,SW,225,17.3,17.3,58,0.00,CLR,,0.04,WeatherDisplay:10.37,2013-04-26 22:52:00,
2013-04-26 17:57:00,68.5,53.6,30.10,SSW,202,16.0,16.0,59,0.00,CLR,,0.04,WeatherDisplay:10.37,2013-04-26 22:57:00,
2013-04-26 18:02:00,68.5,53.6,30.10,SW,225,16.1,16.1,59,0.00,CLR,,0.04,WeatherDisplay:10.37,2013-04-26 23:02:00,
2013-04-26 18:07:00,68.4,53.5,30.10,SW,225,15.0,15.9,59,0.00,CLR,,0.04,WeatherDisplay:10.37,2013-04-26 23:07:00,
2013-04-26 18:12:00,68.4,53.0,30.10,SW,225,16.1,16.7,58,0.00,CLR,,0.04,WeatherDisplay:10.37,2013-04-26 23:12:00,
2013-04-26 18:17:00,68.2,52.8,30.10,SW,225,17.3,18.0,58,0.00,CLR,,0.04,WeatherDisplay:10.37,2013-04-26 23:17:00,
2013-04-26 18:22:00,67.6,52.8,30.10,SW,225,21.9,23.4,59,0.00,CLR,,0.04,WeatherDisplay:10.37,2013-04-26 23:22:00,
2013-04-26 18:27:00,67.3,52.5,30.10,SSW,202,17.3,17.5,59,0.00,CLR,,0.04,WeatherDisplay:10.37,2013-04-26 23:27:00,
2013-04-26 18:32:00,67.1,52.3,30.10,SSW,202,17.3,17.4,59,0.00,CLR,,0.04,WeatherDisplay:10.37,2013-04-26 23:32:00,
2013-04-26 18:37:00,66.6,52.7,30.10,SW,225,12.7,13.0,61,0.00,CLR,,0.04,WeatherDisplay:10.37,2013-04-26 23:37:00,
2013-04-26 18:42:00,66.0,52.2,30.10,SSW,202,23.0,24.0,61,0.00,CLR,,0.04,WeatherDisplay:10.37,2013-04-26 23:42:00,
2013-04-26 18:47:00,65.7,51.8,30.10,South,180,17.3,18.0,61,0.00,CLR,,0.04,WeatherDisplay:10.37,2013-04-26 23:47:00,
2013-04-26 18:52:00,65.7,51.8,30.10,SW,225,17.3,17.9,61,0.00,CLR,,0.04,WeatherDisplay:10.37,2013-04-26 23:52:00,
2013-04-26 19:05:00,64.6,51.3,30.10,SW,225,17.3,18.2,62,0.00,CLR,,0.04,WeatherDisplay:10.37,2013-04-27 00:05:00,
2013-04-26 19:10:00,64.6,51.7,30.11,SSW,202,19.6,19.6,63,0.00,CLR,,0.04,WeatherDisplay:10.37,2013-04-27 00:10:00,
2013-04-26 19:15:00,64.4,51.5,30.11,SW,225,16.1,16.8,63,0.00,CLR,,0.04,WeatherDisplay:10.37,2013-04-27 00:15:00,
2013-04-26 19:20:00,63.7,50.8,30.11,SW,225,17.3,17.3,63,0.00,CLR,,0.04,WeatherDisplay:10.37,2013-04-27 00:20:00,
2013-04-26 19:25:00,63.1,50.8,30.11,SW,225,18.4,18.4,64,0.00,CLR,,0.04,WeatherDisplay:10.37,2013-04-27 00:25:00,
2013-04-26 19:30:00,62.8,50.4,30.11,SW,225,12.7,13.9,64,0.00,CLR,,0.04,WeatherDisplay:10.37,2013-04-27 00:30:00,
2013-04-26 19:35:00,62.2,50.3,30.11,SW,225,16.1,16.5,65,0.00,CLR,,0.04,WeatherDisplay:10.37,2013-04-27 00:35:00,
2013-04-26 19:40:00,61.7,50.2,30.11,SW,225,16.1,17.4,66,0.00,CLR,,0.04,WeatherDisplay:10.37,2013-04-27 00:40:00,
2013-04-26 19:45:00,61.5,50.1,30.11,SW,225,13.8,14.8,66,0.00,CLR,,0.04,WeatherDisplay:10.37,2013-04-27 00:45:00,
2013-04-26 19:50:00,61.2,50.1,30.12,SW,225,13.8,14.0,67,0.00,CLR,,0.04,WeatherDisplay:10.37,2013-04-27 00:50:00,
2013-04-26 19:55:00,61.0,49.9,30.12,SW,225,12.7,13.6,67,0.00,CLR,,0.04,WeatherDisplay:10.37,2013-04-27 00:55:00,
2013-04-26 20:00:00,60.4,49.4,30.12,SW,225,11.5,11.9,67,0.00,CLR,,0.04,WeatherDisplay:10.37,2013-04-27 01:00:00,
2013-04-26 20:05:00,60.3,49.7,30.12,SSW,202,10.4,10.4,68,0.00,CLR,,0.04,WeatherDisplay:10.37,2013-04-27 01:05:00,
2013-04-26 20:10:00,59.9,49.3,30.12,SSW,202,11.6,12.4,68,0.00,CLR,,0.04,WeatherDisplay:10.37,2013-04-27 01:10:00,
2013-04-26 20:15:00,59.7,49.1,30.12,SSW,202,11.5,11.9,68,0.00,CLR,,0.04,WeatherDisplay:10.37,2013-04-27 01:15:00,
2013-04-26 20:20:00,59.4,49.2,30.12,SSW,202,12.7,12.7,69,0.00,CLR,,0.04,WeatherDisplay:10.37,2013-04-27 01:20:00,
2013-04-26 20:25:00,59.0,49.2,30.12,SSW,202,12.7,13.0,70,0.00,CLR,,0.04,WeatherDisplay:10.37,2013-04-27 01:25:00,
2013-04-26 20:30:00,58.6,49.3,30.13,SW,225,15.0,15.9,71,0.00,CLR,,0.04,WeatherDisplay:10.37,2013-04-27 01:30:00,
2013-04-26 20:35:00,58.1,48.7,30.13,SSW,202,12.7,13.3,71,0.00,CLR,,0.04,WeatherDisplay:10.37,2013-04-27 01:35:00,
2013-04-26 20:40:00,57.9,48.6,30.13,SW,225,10.4,10.5,71,0.00,CLR,,0.04,WeatherDisplay:10.37,2013-04-27 01:40:00,
2013-04-26 20:45:00,57.6,49.0,30.13,SSW,202,10.5,10.5,73,0.00,CLR,,0.04,WeatherDisplay:10.37,2013-04-27 01:45:00,
2013-04-26 20:50:00,57.4,48.8,30.13,SSW,202,11.5,11.5,73,0.00,CLR,,0.04,WeatherDisplay:10.37,2013-04-27 01:50:00,
2013-04-26 20:55:00,57.2,49.0,30.13,SW,225,9.2,9.3,74,0.00,CLR,,0.04,WeatherDisplay:10.37,2013-04-27 01:55:00,
2013-04-26 21:00:00,56.8,48.6,30.14,SSW,202,10.4,10.6,74,0.00,CLR,,0.04,WeatherDisplay:10.37,2013-04-27 02:00:00,
2013-04-26 21:05:00,56.5,48.3,30.14,SSW,202,11.5,11.5,74,0.00,CLR,,0.04,WeatherDisplay:10.37,2013-04-27 02:05:00,
2013-04-26 21:10:00,56.3,48.5,30.14,SSW,202,7.3,7.8,75,0.00,CLR,,0.04,WeatherDisplay:10.37,2013-04-27 02:10:00,
2013-04-26 21:15:00,56.1,48.7,30.14,SW,225,8.1,8.6,76,0.00,CLR,,0.04,WeatherDisplay:10.37,2013-04-27 02:15:00,
2013-04-26 21:20:00,55.9,48.5,30.14,SSW,202,12.7,12.7,76,0.00,CLR,,0.04,WeatherDisplay:10.37,2013-04-27 02:20:00,
2013-04-26 21:25:00,55.8,48.7,30.15,South,180,9.7,10.4,77,0.00,CLR,,0.04,WeatherDisplay:10.37,2013-04-27 02:25:00,
2013-04-26 21:30:00,55.6,48.5,30.15,SSW,202,11.5,12.2,77,0.00,CLR,,0.04,WeatherDisplay:10.37,2013-04-27 02:30:00,
2013-04-26 21:35:00,55.4,48.3,30.15,SW,225,12.7,12.7,77,0.00,CLR,,0.04,WeatherDisplay:10.37,2013-04-27 02:35:00,
2013-04-26 21:40:00,55.2,48.1,30.15,SSW,202,10.5,11.3,77,0.00,CLR,,0.04,WeatherDisplay:10.37,2013-04-27 02:40:00,
2013-04-26 21:45:00,54.9,48.1,30.15,SW,225,11.9,11.9,78,0.00,CLR,,0.04,WeatherDisplay:10.37,2013-04-27 02:45:00,
2013-04-26 21:50:00,54.7,48.0,30.15,SSW,202,9.2,9.2,78,0.00,CLR,,0.04,WeatherDisplay:10.37,2013-04-27 02:50:00,
2013-04-26 21:55:00,54.5,47.8,30.15,SW,225,9.2,9.8,78,0.00,CLR,,0.04,WeatherDisplay:10.37,2013-04-27 02:55:00,
2013-04-26 22:00:00,54.3,47.9,30.15,SW,225,7.6,7.6,79,0.00,CLR,,0.04,WeatherDisplay:10.37,2013-04-27 03:00:00,
2013-04-26 22:05:00,54.1,48.1,30.15,SW,225,10.4,10.4,80,0.00,CLR,,0.04,WeatherDisplay:10.37,2013-04-27 03:05:00,
2013-04-26 22:10:00,54.0,47.9,30.15,SSW,202,9.7,10.4,80,0.00,CLR,,0.04,WeatherDisplay:10.37,2013-04-27 03:10:00,
2013-04-26 22:15:00,53.8,47.8,30.16,SSW,202,7.6,7.9,80,0.00,CLR,,0.04,WeatherDisplay:10.37,2013-04-27 03:15:00,
2013-04-26 22:20:00,53.6,47.6,30.16,SSW,202,6.9,6.9,80,0.00,CLR,,0.04,WeatherDisplay:10.37,2013-04-27 03:20:00,
2013-04-26 22:25:00,53.4,47.4,30.16,SSW,202,8.1,8.7,80,0.00,CLR,,0.04,WeatherDisplay:10.37,2013-04-27 03:25:00,
2013-04-26 22:30:00,53.1,47.4,30.16,SSW,202,5.8,5.9,81,0.00,CLR,,0.04,WeatherDisplay:10.37,2013-04-27 03:30:00,
2013-04-26 22:35:00,53.1,47.4,30.16,SW,225,8.1,8.1,81,0.00,CLR,,0.04,WeatherDisplay:10.37,2013-04-27 03:35:00,
2013-04-26 22:40:00,52.7,47.0,30.16,SW,225,3.5,3.8,81,0.00,CLR,,0.04,WeatherDisplay:10.37,2013-04-27 03:40:00,
2013-04-26 22:45:00,52.5,47.2,30.16,SSW,202,8.1,8.1,82,0.00,CLR,,0.04,WeatherDisplay:10.37,2013-04-27 03:45:00,
2013-04-26 22:50:00,52.5,47.5,30.16,SW,225,8.1,8.7,83,0.00,CLR,,0.04,WeatherDisplay:10.37,2013-04-27 03:50:00,
2013-04-26 22:55:00,52.3,47.3,30.16,SW,225,6.9,6.9,83,0.00,CLR,,0.04,WeatherDisplay:10.37,2013-04-27 03:55:00,
2013-04-26 23:00:00,52.0,47.0,30.17,SW,225,5.8,5.9,83,0.00,CLR,,0.04,WeatherDisplay:10.37,2013-04-27 04:00:00,
2013-04-26 23:01:00,52.0,47.0,30.17,SW,225,5.8,6.0,83,0.00,CLR,,0.04,WeatherDisplay:10.37,2013-04-27 04:01:00,
2013-04-26 23:06:00,51.8,46.8,30.16,SW,225,4.6,4.6,83,0.00,CLR,,0.04,WeatherDisplay:10.37,2013-04-27 04:06:00,
2013-04-26 23:11:00,51.6,46.9,30.16,SW,225,8.1,8.1,84,0.00,CLR,,0.04,WeatherDisplay:10.37,2013-04-27 04:11:00,
2013-04-26 23:16:00,51.6,46.9,30.16,SW,225,3.5,3.8,84,0.00,CLR,,0.04,WeatherDisplay:10.37,2013-04-27 04:16:00,
2013-04-26 23:21:00,51.4,46.8,30.17,SW,225,8.1,8.2,84,0.00,CLR,,0.04,WeatherDisplay:10.37,2013-04-27 04:21:00,
2013-04-26 23:26:00,51.3,46.9,30.16,SW,225,4.6,4.6,85,0.00,CLR,,0.04,WeatherDisplay:10.37,2013-04-27 04:26:00,
2013-04-26 23:31:00,51.3,46.9,30.16,SW,225,6.9,7.2,85,0.00,CLR,,0.04,WeatherDisplay:10.37,2013-04-27 04:31:00,
2013-04-26 23:36:00,51.1,46.7,30.16,SW,225,1.1,1.1,85,0.00,CLR,,0.04,WeatherDisplay:10.37,2013-04-27 04:36:00,
2013-04-26 23:41:00,50.9,46.6,30.17,SSW,202,2.3,0.0,85,0.00,CLR,,0.04,WeatherDisplay:10.37,2013-04-27 04:41:00,
2013-04-26 23:46:00,50.9,46.6,30.17,SSW,202,0.0,0.6,85,0.00,CLR,,0.04,WeatherDisplay:10.37,2013-04-27 04:46:00,
2013-04-26 23:51:00,50.7,46.7,30.17,SSW,202,2.7,2.7,86,0.00,CLR,,0.04,WeatherDisplay:10.37,2013-04-27 04:51:00,
2013-04-26 23:56:00,50.5,46.5,30.18,SSW,202,0.0,0.0,86,0.00,CLR,,0.04,WeatherDisplay:10.37,2013-04-27 04:56:00,